Time;durP1;ratioP1;P1;durP2;ratioP2;P2;SDS_P1;SDS_P2;PMS_P1;PMS_P2;Temp;Humidity;BMP_temperature;BMP_pressure;BME280_temperature;BME280_humidity;BME280_pressure;Samples;Min_cycle;Max_cycle;Signal;HPM_P1;HPM_P2
2021/04/25 00:00:39;;;;;;;;;;;3.80;99.90;;;;;;10509673;28;19928;-84
2021/04/25 00:05:40;;;;;;;;;;;4.20;99.90;;;;;;10537703;28;19924;-85
2021/04/25 00:10:42;;;;;;;;;;;4.50;99.90;;;;;;10356838;28;19933;-84
2021/04/25 00:15:43;;;;;;;;;;;4.20;99.90;;;;;;10329886;28;19930;-85
2021/04/25 00:20:45;;;;;;;;;;;6.80;99.90;;;;;;10389700;23;19929;-88
2021/04/25 00:25:46;;;;;;;;;;;5.20;99.90;;;;;;10439244;28;19954;-88
2021/04/25 00:30:47;;;;;;;;;;;3.80;99.90;;;;;;10456826;28;19925;-87
2021/04/25 00:35:49;;;;;;;;;;;4.40;99.90;;;;;;10438913;28;19931;-88
2021/04/25 00:40:50;;;;;;;;;;;4.20;99.90;;;;;;10439444;28;19925;-87
2021/04/25 00:45:51;;;;;;;;;;;4.40;99.90;;;;;;10438082;28;19927;-88
2021/04/25 00:50:53;;;;;;;;;;;5.20;99.90;;;;;;10440248;28;19970;-88
2021/04/25 00:55:54;;;;;;;;;;;4.20;99.90;;;;;;10452938;28;19991;-87
2021/04/25 01:00:56;;;;;;;;;;;4.30;99.90;;;;;;10454063;28;20397;-88
2021/04/25 01:05:57;;;;;;;;;;;4.40;99.90;;;;;;10453842;28;20260;-88
2021/04/25 01:10:58;;;;;;;;;;;4.80;99.90;;;;;;10437207;28;20371;-88
2021/04/25 01:16:00;;;;;;;;;;;4.50;99.90;;;;;;10454295;28;19925;-88
2021/04/25 01:21:02;;;;;;;;;;;5.00;99.90;;;;;;10454489;28;19931;-88
2021/04/25 01:26:04;;;;;;;;;;;7.10;99.90;;;;;;10540212;27;19925;-87
2021/04/25 01:31:05;;;;;;;;;;;5.20;99.90;;;;;;10539825;27;20397;-87
2021/04/25 01:36:07;;;;;;;;;;;6.10;99.90;;;;;;10420285;28;19925;-87
2021/04/25 01:41:08;;;;;;;;;;;5.10;99.90;;;;;;10452980;28;19925;-87
2021/04/25 01:46:10;;;;;;;;;;;4.40;99.90;;;;;;10450971;28;20372;-87
2021/04/25 01:51:11;;;;;;;;;;;4.10;99.90;;;;;;10435589;28;20295;-86
2021/04/25 01:56:13;;;;;;;;;;;4.80;99.90;;;;;;10452669;28;20007;-88
2021/04/25 02:01:14;;;;;;;;;;;4.70;99.90;;;;;;10453381;28;20290;-87
2021/04/25 02:06:16;;;;;;;;;;;4.70;99.90;;;;;;10435853;28;19925;-88
2021/04/25 02:11:17;;;;;;;;;;;3.50;99.90;;;;;;10435422;28;19931;-88
2021/04/25 02:16:18;;;;;;;;;;;3.60;99.90;;;;;;10452980;28;20023;-88
2021/04/25 02:21:19;;;;;;;;;;;3.50;99.90;;;;;;10434796;28;19924;-87
2021/04/25 02:26:21;;;;;;;;;;;4.00;99.90;;;;;;10419098;28;19925;-87
2021/04/25 02:31:22;;;;;;;;;;;4.60;99.90;;;;;;10434645;28;20375;-88
2021/04/25 02:36:23;;;;;;;;;;;4.90;99.90;;;;;;10433893;28;19932;-88
2021/04/25 02:41:27;;;;;;;;;;;5.00;99.90;;;;;;10411192;28;20384;-88
2021/04/25 02:46:28;;;;;;;;;;;4.30;99.90;;;;;;10410616;28;19925;-88
2021/04/25 02:51:29;;;;;;;;;;;5.90;99.90;;;;;;10496016;27;19925;-88
2021/04/25 02:56:31;;;;;;;;;;;6.10;99.90;;;;;;10504486;27;20439;-88
2021/04/25 03:01:32;;;;;;;;;;;4.80;99.90;;;;;;10452017;28;19925;-87
2021/04/25 03:06:33;;;;;;;;;;;4.60;99.90;;;;;;10451928;28;19925;-87
2021/04/25 03:11:36;;;;;;;;;;;5.10;99.90;;;;;;10417627;28;19977;-87
2021/04/25 03:16:37;;;;;;;;;;;6.10;99.90;;;;;;10417631;28;19924;-88
2021/04/25 03:21:38;;;;;;;;;;;4.70;99.90;;;;;;10534788;27;20344;-87
2021/04/25 03:26:40;;;;;;;;;;;4.50;99.90;;;;;;10517835;28;19948;-87
2021/04/25 03:31:41;;;;;;;;;;;4.10;99.90;;;;;;10450160;28;19925;-88
2021/04/25 03:36:43;;;;;;;;;;;5.80;99.90;;;;;;10433404;28;20411;-88
2021/04/25 03:41:44;;;;;;;;;;;3.70;99.90;;;;;;10537101;27;19931;-88
2021/04/25 03:46:46;;;;;;;;;;;3.80;99.90;;;;;;10434889;28;19931;-87
2021/04/25 03:51:48;;;;;;;;;;;4.10;99.90;;;;;;10423300;28;20302;-88
2021/04/25 03:56:49;;;;;;;;;;;6.50;99.90;;;;;;10439514;28;19925;-87
2021/04/25 04:01:50;;;;;;;;;;;5.70;99.90;;;;;;10457678;28;19932;-87
2021/04/25 04:06:52;;;;;;;;;;;4.60;99.90;;;;;;10456838;28;20324;-88
2021/04/25 04:11:53;;;;;;;;;;;3.80;99.90;;;;;;10456223;28;19932;-87
2021/04/25 04:16:54;;;;;;;;;;;3.90;99.90;;;;;;10439642;28;19968;-88
2021/04/25 04:21:56;;;;;;;;;;;4.80;99.90;;;;;;10423036;28;19925;-88
2021/04/25 04:26:57;;;;;;;;;;;4.70;99.90;;;;;;10423146;28;20302;-88
2021/04/25 04:31:59;;;;;;;;;;;4.20;99.90;;;;;;10438472;28;19925;-88
2021/04/25 04:37:00;;;;;;;;;;;4.20;99.90;;;;;;10466188;28;19991;-88
2021/04/25 04:42:02;;;;;;;;;;;4.70;99.90;;;;;;10438830;28;19931;-88
2021/04/25 04:47:03;;;;;;;;;;;4.70;99.90;;;;;;10438753;28;19924;-88
2021/04/25 04:52:05;;;;;;;;;;;6.30;99.90;;;;;;10455415;28;20373;-88
2021/04/25 04:57:06;;;;;;;;;;;4.30;99.90;;;;;;10438089;28;19947;-88
2021/04/25 05:02:08;;;;;;;;;;;4.90;99.90;;;;;;10541247;27;19924;-88
2021/04/25 05:07:09;;;;;;;;;;;5.80;99.90;;;;;;10437468;28;19924;-88
2021/04/25 05:12:10;;;;;;;;;;;5.60;99.90;;;;;;10437660;28;19925;-88
2021/04/25 05:17:12;;;;;;;;;;;5.10;99.90;;;;;;10455158;28;19927;-88
2021/04/25 05:22:13;;;;;;;;;;;6.30;99.90;;;;;;10412561;28;19925;-88
2021/04/25 05:27:15;;;;;;;;;;;6.10;99.90;;;;;;10412656;28;19932;-88
2021/04/25 05:32:16;;;;;;;;;;;6.00;99.90;;;;;;10428499;28;20382;-88
2021/04/25 05:37:18;;;;;;;;;;;6.70;99.90;;;;;;10412331;28;19974;-87
2021/04/25 05:42:19;;;;;;;;;;;5.00;99.90;;;;;;10413304;28;19931;-87
2021/04/25 05:47:20;;;;;;;;;;;4.90;99.90;;;;;;10390243;28;19925;-87
2021/04/25 05:52:22;;;;;;;;;;;4.90;99.90;;;;;;10370235;28;19933;-87
2021/04/25 05:57:23;;;;;;;;;;;6.50;99.90;;;;;;10361265;28;20296;-87
2021/04/25 06:02:26;;;;;;;;;;;5.50;99.90;;;;;;10345285;28;20406;-87
2021/04/25 06:07:27;;;;;;;;;;;5.70;99.90;;;;;;10376891;28;20356;-87
2021/04/25 06:12:29;;;;;;;;;;;5.60;99.90;;;;;;10410764;28;20359;-87
2021/04/25 06:17:30;;;;;;;;;;;5.60;99.90;;;;;;10411523;28;19925;-87
2021/04/25 06:22:32;;;;;;;;;;;7.80;99.90;;;;;;10509598;22;19924;-86
2021/04/25 06:27:33;;;;;;;;;;;5.70;99.90;;;;;;10542084;28;19930;-86
2021/04/25 06:32:35;;;;;;;;;;;6.10;99.90;;;;;;10540020;28;19924;-86
2021/04/25 06:37:36;;;;;;;;;;;6.60;99.90;;;;;;10540153;28;19935;-86
2021/04/25 06:42:40;;;;;;;;;;;5.80;99.90;;;;;;10538423;28;19931;-86
2021/04/25 06:47:42;;;;;;;;;;;5.90;99.90;;;;;;10522653;28;20374;-86
2021/04/25 06:52:45;;;;;;;;;;;6.80;99.90;;;;;;10541293;28;20267;-86
2021/04/25 06:57:48;;;;;;;;;;;7.10;99.90;;;;;;10543974;28;20114;-86
2021/04/25 07:02:51;;;;;;;;;;;6.10;99.90;;;;;;10541358;28;19928;-86
2021/04/25 07:07:53;;;;;;;;;;;7.20;99.90;;;;;;10535047;28;19931;-86
2021/04/25 07:12:55;;;;;;;;;;;6.60;99.90;;;;;;10531390;28;19924;-86
2021/04/25 07:17:57;;;;;;;;;;;7.10;99.90;;;;;;10511361;28;19982;-86
2021/04/25 07:22:58;;;;;;;;;;;7.20;99.90;;;;;;10519309;28;19925;-86
2021/04/25 07:28:00;;;;;;;;;;;6.90;99.90;;;;;;10519214;28;19932;-86
2021/04/25 07:33:03;;;;;;;;;;;6.50;99.90;;;;;;10553561;28;19924;-86
2021/04/25 07:38:04;;;;;;;;;;;7.10;99.80;;;;;;10550012;28;20375;-86
2021/04/25 07:43:06;;;;;;;;;;;6.60;99.00;;;;;;10512957;28;20015;-85
2021/04/25 07:48:08;;;;;;;;;;;7.10;99.10;;;;;;10501435;28;19924;-86
2021/04/25 07:53:09;;;;;;;;;;;7.10;98.40;;;;;;10509302;28;20349;-86
2021/04/25 07:58:11;;;;;;;;;;;7.30;98.90;;;;;;10509574;28;19924;-86
2021/04/25 08:03:12;;;;;;;;;;;7.40;98.00;;;;;;10507946;28;19931;-86
2021/04/25 08:08:14;;;;;;;;;;;7.50;98.80;;;;;;10509087;28;19972;-86
2021/04/25 08:13:15;;;;;;;;;;;9.70;99.00;;;;;;10510151;28;19934;-86
2021/04/25 08:18:16;;;;;;;;;;;7.60;97.50;;;;;;10510454;28;19935;-86
2021/04/25 08:23:18;;;;;;;;;;;7.80;97.30;;;;;;10545868;28;19924;-86
2021/04/25 08:28:20;;;;;;;;;;;7.30;97.70;;;;;;10552137;28;19924;-86
2021/04/25 08:33:22;;;;;;;;;;;8.60;96.90;;;;;;10548781;28;19931;-85
2021/04/25 08:38:23;;;;;;;;;;;8.50;97.10;;;;;;10545670;28;19947;-86
2021/04/25 08:43:25;;;;;;;;;;;8.10;99.40;;;;;;10517552;28;19932;-85
2021/04/25 08:48:29;;;;;;;;;;;8.80;95.20;;;;;;10512509;28;19981;-85
2021/04/25 08:53:31;;;;;;;;;;;8.60;95.30;;;;;;10503537;28;20298;-85
2021/04/25 08:58:35;;;;;;;;;;;8.00;95.00;;;;;;10503144;28;19932;-85
2021/04/25 09:03:37;;;;;;;;;;;8.60;94.90;;;;;;10520895;28;20020;-85
2021/04/25 09:08:45;;;;;;;;;;;9.50;94.30;;;;;;10543201;28;19978;-85
2021/04/25 09:13:51;;;;;;;;;;;8.70;94.90;;;;;;10526950;28;20310;-85
2021/04/25 09:18:54;;;;;;;;;;;8.60;95.00;;;;;;10501871;28;20011;-87
2021/04/25 09:23:55;;;;;;;;;;;8.90;94.50;;;;;;10500963;28;19932;-86
2021/04/25 09:29:00;;;;;;;;;;;9.80;93.40;;;;;;10501005;28;20307;-86
2021/04/25 09:34:05;;;;;;;;;;;9.60;93.20;;;;;;10502801;28;19999;-85
2021/04/25 09:39:09;;;;;;;;;;;9.10;94.00;;;;;;10502778;28;19924;-85
2021/04/25 09:44:29;;;;;;;;;;;9.90;91.80;;;;;;10484123;28;19925;-85
2021/04/25 09:49:45;;;;;;;;;;;9.50;90.80;;;;;;10492727;28;19939;-85
2021/04/25 09:54:47;;;;;;;;;;;9.40;92.80;;;;;;10500291;28;19925;-85
2021/04/25 09:59:52;;;;;;;;;;;9.50;92.00;;;;;;10500083;28;19924;-87
2021/04/25 10:04:53;;;;;;;;;;;10.30;93.50;;;;;;10481164;28;20393;-85
2021/04/25 10:10:07;;;;;;;;;;;9.90;91.10;;;;;;10486549;28;19924;-86
2021/04/25 10:15:10;;;;;;;;;;;10.00;92.80;;;;;;10498442;28;19925;-86
2021/04/25 10:20:16;;;;;;;;;;;10.10;90.10;;;;;;10488219;28;20220;-86
2021/04/25 10:25:31;;;;;;;;;;;10.20;91.70;;;;;;10541276;28;19978;-86
2021/04/25 10:30:35;;;;;;;;;;;10.10;92.40;;;;;;10542032;28;19974;-86
2021/04/25 10:35:37;;;;;;;;;;;10.10;92.30;;;;;;10539954;28;19924;-86
2021/04/25 10:40:45;;;;;;;;;;;10.70;91.70;;;;;;10522348;28;19924;-86
2021/04/25 10:45:59;;;;;;;;;;;11.00;90.30;;;;;;10539362;28;19932;-87
2021/04/25 10:51:01;;;;;;;;;;;11.10;88.50;;;;;;10497265;28;19929;-87
2021/04/25 10:56:11;;;;;;;;;;;10.80;86.00;;;;;;10534211;28;19924;-86
2021/04/25 11:01:35;;;;;;;;;;;11.10;90.00;;;;;;10521205;28;20286;-86
2021/04/25 11:06:37;;;;;;;;;;;11.80;86.60;;;;;;10515131;28;19924;-87
2021/04/25 11:11:39;;;;;;;;;;;11.10;84.70;;;;;;10523000;28;19924;-87
2021/04/25 11:16:40;;;;;;;;;;;11.50;79.90;;;;;;10539770;28;20014;-85
2021/04/25 11:21:50;;;;;;;;;;;12.10;76.50;;;;;;10538918;28;19932;-86
2021/04/25 11:26:53;;;;;;;;;;;12.40;75.60;;;;;;10539437;28;19931;-85
2021/04/25 11:31:55;;;;;;;;;;;12.80;79.80;;;;;;10537910;28;19928;-87
2021/04/25 11:37:01;;;;;;;;;;;12.70;80.20;;;;;;10537597;28;19951;-86
2021/04/25 11:42:03;;;;;;;;;;;12.90;71.70;;;;;;10522007;28;20421;-87
2021/04/25 11:47:05;;;;;;;;;;;13.50;76.30;;;;;;10538813;28;20015;-87
2021/04/25 11:52:07;;;;;;;;;;;13.20;72.70;;;;;;10539579;28;19924;-87
2021/04/25 11:57:09;;;;;;;;;;;13.00;70.30;;;;;;10539262;28;19924;-87
2021/04/25 12:02:10;;;;;;;;;;;13.20;70.70;;;;;;10540019;28;19924;-87
2021/04/25 12:07:12;;;;;;;;;;;13.40;71.40;;;;;;10523067;28;19932;-86
2021/04/25 12:12:13;;;;;;;;;;;14.30;80.50;;;;;;10547396;28;19924;-87
2021/04/25 12:17:14;;;;;;;;;;;13.50;65.70;;;;;;10547623;28;19924;-87
2021/04/25 12:22:16;;;;;;;;;;;13.20;69.90;;;;;;10528683;28;19928;-87
2021/04/25 12:27:17;;;;;;;;;;;11.90;71.30;;;;;;10546000;28;19931;-87
2021/04/25 12:32:19;;;;;;;;;;;13.40;68.40;;;;;;10546205;28;19924;-87
2021/04/25 12:37:34;;;;;;;;;;;13.30;63.90;;;;;;10491670;22;19929;-87
2021/04/25 12:42:35;;;;;;;;;;;12.70;70.20;;;;;;10436953;28;19974;-87
2021/04/25 12:47:40;;;;;;;;;;;12.90;70.90;;;;;;10453641;28;19986;-87
2021/04/25 12:52:41;;;;;;;;;;;13.90;67.90;;;;;;10452720;28;19925;-87
2021/04/25 12:57:42;;;;;;;;;;;14.20;67.70;;;;;;10451907;28;20011;-87
2021/04/25 13:02:44;;;;;;;;;;;;;;;;;;10453657;28;19925;-88
2021/04/25 13:07:48;;;;;;;;;;;;;;;;;;10454165;28;19931;-88
2021/04/25 13:12:54;;;;;;;;;;;12.80;95.10;;;;;;10429331;28;19931;-88
2021/04/25 13:17:57;;;;;;;;;;;12.20;78.40;;;;;;10429903;28;19936;-88
2021/04/25 13:23:02;;;;;;;;;;;13.30;69.80;;;;;;10411113;28;20023;-90
2021/04/25 13:28:04;;;;;;;;;;;13.20;71.20;;;;;;10410962;28;20279;-86
2021/04/25 13:33:06;;;;;;;;;;;12.60;67.50;;;;;;10453013;28;19925;-86
2021/04/25 13:38:07;;;;;;;;;;;12.50;74.00;;;;;;10442949;28;19960;-86
2021/04/25 13:43:09;;;;;;;;;;;13.20;68.50;;;;;;10450904;28;19924;-86
2021/04/25 13:48:11;;;;;;;;;;;14.30;63.90;;;;;;10469019;27;19923;-85
2021/04/25 13:53:12;;;;;;;;;;;13.30;64.80;;;;;;10558680;27;19931;-86
2021/04/25 13:58:14;;;;;;;;;;;13.90;64.80;;;;;;10425768;28;19925;-86
2021/04/25 14:03:16;;;;;;;;;;;;;;;;;;10406303;28;19970;-86
2021/04/25 14:08:17;;;;;;;;;;;;;;;;;;10431085;27;19933;-86
2021/04/25 14:13:19;;;;;;;;;;;;;;;;;;10449237;28;20438;-86
2021/04/25 14:18:21;;;;;;;;;;;;;;;;;;10459507;28;19929;-86
2021/04/25 14:23:23;;;;;;;;;;;;;;;;;;10444192;28;19929;-88
2021/04/25 14:28:26;;;;;;;;;;;;;;;;;;10439495;28;19929;-89
2021/04/25 14:33:27;;;;;;;;;;;;;;;;;;10402918;28;19933;-86
2021/04/25 14:38:45;;;;;;;;;;;;;;;;;;10401372;28;19930;-86
2021/04/25 14:43:46;;;;;;;;;;;13.30;62.10;;;;;;10416238;28;19936;-86
2021/04/25 14:48:48;;;;;;;;;;;13.10;66.80;;;;;;10447879;28;19928;-86
2021/04/25 14:53:50;;;;;;;;;;;14.00;65.40;;;;;;10443047;28;19925;-86
2021/04/25 14:58:51;;;;;;;;;;;13.50;62.30;;;;;;10442711;28;19929;-86
2021/04/25 15:03:53;;;;;;;;;;;13.40;65.10;;;;;;10444341;28;20015;-87
2021/04/25 15:08:55;;;;;;;;;;;14.10;66.40;;;;;;10442682;28;19936;-85
2021/04/25 15:13:57;;;;;;;;;;;13.40;62.70;;;;;;10443276;28;20481;-86
2021/04/25 15:18:58;;;;;;;;;;;13.90;69.80;;;;;;10442362;28;20458;-86
2021/04/25 15:23:59;;;;;;;;;;;13.50;63.40;;;;;;10442701;28;19936;-86
2021/04/25 15:29:01;;;;;;;;;;;13.20;63.40;;;;;;10446294;28;19925;-86
2021/04/25 15:34:21;;;;;;;;;;;13.30;64.20;;;;;;10445821;28;19929;-86
2021/04/25 15:39:22;;;;;;;;;;;14.40;65.70;;;;;;10443704;28;19928;-86
2021/04/25 15:44:24;;;;;;;;;;;13.20;65.90;;;;;;10452261;28;19928;-86
2021/04/25 15:49:25;;;;;;;;;;;13.30;68.00;;;;;;10451337;27;19935;-86
2021/04/25 15:54:27;;;;;;;;;;;13.00;65.40;;;;;;10450287;28;19929;-86
2021/04/25 15:59:30;;;;;;;;;;;12.50;64.90;;;;;;10449432;28;19935;-86
2021/04/25 16:04:31;;;;;;;;;;;13.10;66.20;;;;;;10442192;28;20302;-86
2021/04/25 16:09:32;;;;;;;;;;;12.90;63.20;;;;;;10460305;28;20002;-87
2021/04/25 16:14:33;;;;;;;;;;;12.50;68.80;;;;;;10447889;28;19939;-87
2021/04/25 16:19:35;;;;;;;;;;;12.60;71.30;;;;;;10452548;28;20006;-87
2021/04/25 16:24:36;;;;;;;;;;;12.70;73.60;;;;;;10448368;28;19933;-86
2021/04/25 16:29:38;;;;;;;;;;;12.50;73.60;;;;;;10446534;28;20382;-86
2021/04/25 16:34:39;;;;;;;;;;;12.20;71.80;;;;;;10456461;28;19928;-87
2021/04/25 16:39:41;;;;;;;;;;;12.30;72.30;;;;;;10448381;28;19932;-87
2021/04/25 16:44:42;;;;;;;;;;;12.30;72.30;;;;;;10449304;28;19925;-86
2021/04/25 16:49:43;;;;;;;;;;;12.20;75.30;;;;;;10447693;28;19929;-86
2021/04/25 16:54:45;;;;;;;;;;;12.10;75.90;;;;;;10445151;28;20367;-86
2021/04/25 16:59:46;;;;;;;;;;;11.80;75.70;;;;;;10446373;28;20405;-87
2021/04/25 17:04:48;;;;;;;;;;;11.90;75.00;;;;;;10463628;28;20008;-87
2021/04/25 17:09:49;;;;;;;;;;;12.20;77.50;;;;;;10434957;28;19929;-89
2021/04/25 17:14:51;;;;;;;;;;;11.60;77.10;;;;;;10453823;28;19932;-89
2021/04/25 17:19:52;;;;;;;;;;;12.60;80.30;;;;;;10450938;28;20362;-86
2021/04/25 17:24:54;;;;;;;;;;;11.70;78.30;;;;;;10462290;28;19932;-88
2021/04/25 17:29:55;;;;;;;;;;;11.90;82.10;;;;;;10452101;28;20011;-86
2021/04/25 17:34:57;;;;;;;;;;;11.60;78.40;;;;;;10451764;28;19929;-87
2021/04/25 17:39:59;;;;;;;;;;;11.50;82.40;;;;;;10431267;28;19925;-86
2021/04/25 17:45:00;;;;;;;;;;;11.60;82.60;;;;;;10446786;27;20294;-86
2021/04/25 17:50:04;;;;;;;;;;;10.90;80.20;;;;;;10453009;28;20286;-86
2021/04/25 17:55:06;;;;;;;;;;;10.80;80.30;;;;;;10452038;28;19929;-85
2021/04/25 18:00:09;;;;;;;;;;;10.50;83.60;;;;;;10440774;28;19929;-86
2021/04/25 18:05:12;;;;;;;;;;;10.50;86.40;;;;;;10430065;28;19925;-85
2021/04/25 18:10:15;;;;;;;;;;;10.40;85.90;;;;;;10423049;28;19925;-85
2021/04/25 18:15:21;;;;;;;;;;;10.20;90.20;;;;;;10428076;28;19929;-85
2021/04/25 18:20:23;;;;;;;;;;;10.30;91.10;;;;;;10424134;28;20363;-85
2021/04/25 18:25:28;;;;;;;;;;;10.60;92.50;;;;;;10425086;28;19933;-85
2021/04/25 18:30:29;;;;;;;;;;;10.10;94.40;;;;;;10452522;28;19931;-85
2021/04/25 18:35:31;;;;;;;;;;;11.00;94.60;;;;;;10466818;28;19925;-85
2021/04/25 18:40:32;;;;;;;;;;;11.10;96.50;;;;;;10518308;27;20323;-85
2021/04/25 18:45:34;;;;;;;;;;;9.30;95.90;;;;;;10664596;27;20258;-86
2021/04/25 18:50:38;;;;;;;;;;;10.70;95.80;;;;;;10663146;27;19926;-88
2021/04/25 18:55:40;;;;;;;;;;;9.00;95.10;;;;;;10423220;27;19981;-86
2021/04/25 19:00:47;;;;;;;;;;;9.00;98.70;;;;;;10452925;28;20290;-86
2021/04/25 19:05:51;;;;;;;;;;;8.50;99.60;;;;;;10441444;28;19945;-86
2021/04/25 19:10:52;;;;;;;;;;;8.50;99.90;;;;;;10449868;28;19931;-87
2021/04/25 19:15:54;;;;;;;;;;;9.50;99.90;;;;;;10449432;28;19947;-86
2021/04/25 19:20:56;;;;;;;;;;;7.90;99.90;;;;;;10429293;28;19925;-86
2021/04/25 19:25:58;;;;;;;;;;;10.30;99.90;;;;;;10443193;28;20443;-86
2021/04/25 19:31:01;;;;;;;;;;;8.10;99.90;;;;;;10445272;28;20204;-86
2021/04/25 19:36:02;;;;;;;;;;;7.40;99.90;;;;;;10435307;23;19925;-85
2021/04/25 19:41:04;;;;;;;;;;;7.30;99.90;;;;;;10368994;28;19925;-86
2021/04/25 19:46:06;;;;;;;;;;;7.70;99.90;;;;;;10368662;28;20288;-85
2021/04/25 19:51:08;;;;;;;;;;;6.90;99.90;;;;;;10366433;28;20382;-86
2021/04/25 19:56:09;;;;;;;;;;;6.70;99.90;;;;;;10368183;28;19947;-86
2021/04/25 20:01:11;;;;;;;;;;;6.90;99.90;;;;;;10364157;28;20024;-85
2021/04/25 20:06:12;;;;;;;;;;;6.30;99.90;;;;;;10364389;28;19941;-86
2021/04/25 20:11:13;;;;;;;;;;;6.30;99.90;;;;;;10453651;28;20367;-86
2021/04/25 20:16:15;;;;;;;;;;;8.60;99.90;;;;;;10522062;28;19930;-86
2021/04/25 20:21:16;;;;;;;;;;;6.90;99.90;;;;;;10422306;28;19925;-85
2021/04/25 20:26:18;;;;;;;;;;;6.00;99.90;;;;;;10362734;28;20000;-85
2021/04/25 20:31:19;;;;;;;;;;;5.90;99.90;;;;;;10355652;28;19929;-86
2021/04/25 20:36:20;;;;;;;;;;;5.80;99.90;;;;;;10385419;28;19972;-85
2021/04/25 20:41:23;;;;;;;;;;;6.80;99.90;;;;;;10397923;28;20015;-85
2021/04/25 20:46:27;;;;;;;;;;;6.40;99.90;;;;;;10397501;28;19994;-85
2021/04/25 20:51:28;;;;;;;;;;;7.30;99.90;;;;;;10413437;28;20396;-85
2021/04/25 20:56:29;;;;;;;;;;;9.20;99.90;;;;;;10413713;28;19925;-86
2021/04/25 21:01:30;;;;;;;;;;;6.00;99.90;;;;;;10414919;28;19932;-84
2021/04/25 21:06:32;;;;;;;;;;;6.10;99.90;;;;;;10397101;28;20368;-85
2021/04/25 21:11:33;;;;;;;;;;;7.70;99.90;;;;;;10397281;28;19932;-86
2021/04/25 21:16:35;;;;;;;;;;;7.80;99.90;;;;;;10413221;28;19925;-86
2021/04/25 21:21:36;;;;;;;;;;;7.00;99.90;;;;;;10397791;28;19932;-86
2021/04/25 21:26:37;;;;;;;;;;;6.20;99.90;;;;;;10412488;28;19925;-86
2021/04/25 21:31:38;;;;;;;;;;;6.90;99.90;;;;;;10395221;28;19936;-86
2021/04/25 21:36:40;;;;;;;;;;;7.60;99.90;;;;;;10360009;28;19994;-86
2021/04/25 21:41:41;;;;;;;;;;;6.00;99.90;;;;;;10299681;28;19925;-86
2021/04/25 21:46:43;;;;;;;;;;;6.20;99.90;;;;;;10332187;28;20016;-86
2021/04/25 21:51:44;;;;;;;;;;;5.40;99.90;;;;;;10314331;28;19925;-86
2021/04/25 21:56:46;;;;;;;;;;;6.30;99.90;;;;;;10330654;28;20024;-86
2021/04/25 22:01:47;;;;;;;;;;;5.40;99.90;;;;;;10298407;28;20364;-86
2021/04/25 22:06:49;;;;;;;;;;;5.40;99.90;;;;;;10313865;28;20366;-86
2021/04/25 22:11:50;;;;;;;;;;;5.40;99.90;;;;;;10314511;28;19926;-86
2021/04/25 22:16:52;;;;;;;;;;;5.20;99.90;;;;;;10331743;28;19933;-86
2021/04/25 22:21:53;;;;;;;;;;;4.80;99.90;;;;;;10313795;28;19926;-86
2021/04/25 22:26:54;;;;;;;;;;;5.00;99.90;;;;;;10297983;28;19926;-86
2021/04/25 22:31:56;;;;;;;;;;;6.90;99.90;;;;;;10313422;28;19936;-86
2021/04/25 22:36:57;;;;;;;;;;;5.00;99.90;;;;;;10296542;28;19926;-86
2021/04/25 22:41:58;;;;;;;;;;;5.00;99.90;;;;;;10312536;28;19936;-86
2021/04/25 22:47:00;;;;;;;;;;;5.00;99.90;;;;;;10312592;28;19932;-86
2021/04/25 22:52:01;;;;;;;;;;;5.10;99.90;;;;;;10328683;28;20049;-86
2021/04/25 22:57:03;;;;;;;;;;;4.70;99.90;;;;;;10352358;28;19925;-86
2021/04/25 23:02:04;;;;;;;;;;;4.50;99.90;;;;;;10328780;28;19933;-86
2021/04/25 23:07:06;;;;;;;;;;;7.10;99.90;;;;;;10413743;28;20017;-86
2021/04/25 23:12:08;;;;;;;;;;;5.60;99.90;;;;;;10395816;28;19926;-86
2021/04/25 23:17:09;;;;;;;;;;;4.60;99.90;;;;;;10413582;28;19948;-86
2021/04/25 23:22:11;;;;;;;;;;;4.50;99.90;;;;;;10395938;28;19925;-86
2021/04/25 23:27:12;;;;;;;;;;;4.70;99.90;;;;;;10378757;28;20306;-86
2021/04/25 23:32:13;;;;;;;;;;;3.90;99.90;;;;;;10412665;28;19933;-86
2021/04/25 23:37:15;;;;;;;;;;;5.70;99.90;;;;;;10511362;28;19924;-86
2021/04/25 23:42:16;;;;;;;;;;;4.10;99.90;;;;;;10564769;28;19924;-86
2021/04/25 23:47:17;;;;;;;;;;;3.50;99.90;;;;;;10564005;28;20389;-86
2021/04/25 23:52:19;;;;;;;;;;;5.00;99.90;;;;;;10581882;28;19924;-86
2021/04/25 23:57:20;;;;;;;;;;;5.20;99.90;;;;;;10547117;28;19924;-86
